Time;durP1;ratioP1;P1;durP2;ratioP2;P2;SDS_P1;SDS_P2;PMS_P1;PMS_P2;Temp;Humidity;BMP_temperature;BMP_pressure;BME280_temperature;BME280_humidity;BME280_pressure;Samples;Min_cycle;Max_cycle;Signal;HPM_P1;HPM_P2
2022/07/28 00:00:19;;;;;;;26.75;21.15;;;23.10;90.40;;;;;;5072667;28;20500;-83
2022/07/28 00:02:45;;;;;;;23.33;19.50;;;23.20;90.40;;;;;;5071994;28;20057;-82
2022/07/28 00:05:11;;;;;;;28.63;19.77;;;23.20;90.50;;;;;;5071476;28;20114;-83
2022/07/28 00:07:36;;;;;;;23.65;20.88;;;23.10;90.50;;;;;;5071837;28;20028;-82
2022/07/28 00:10:03;;;;;;;25.02;21.27;;;23.10;90.50;;;;;;5071816;28;20145;-82
2022/07/28 00:12:29;;;;;;;27.97;22.97;;;23.10;90.90;;;;;;5072286;28;20416;-82
2022/07/28 00:14:55;;;;;;;25.25;20.65;;;23.10;90.60;;;;;;5071926;28;20028;-81
2022/07/28 00:17:20;;;;;;;27.10;22.38;;;23.20;90.70;;;;;;5072201;28;20099;-82
2022/07/28 00:19:46;;;;;;;27.08;20.80;;;23.10;90.60;;;;;;5072160;28;20055;-82
2022/07/28 00:22:12;;;;;;;27.52;22.42;;;23.10;90.80;;;;;;5053377;28;20040;-81
2022/07/28 00:24:38;;;;;;;23.83;21.13;;;23.10;90.90;;;;;;5072109;28;20082;-81
2022/07/28 00:27:06;;;;;;;30.27;23.08;;;23.00;90.90;;;;;;5068925;28;20087;-82
2022/07/28 00:29:32;;;;;;;26.50;21.45;;;23.00;90.90;;;;;;5072733;28;20146;-82
2022/07/28 00:31:59;;;;;;;25.27;20.85;;;23.00;91.10;;;;;;5073026;28;20038;-83
2022/07/28 00:34:24;;;;;;;30.55;23.08;;;23.00;91.20;;;;;;5054725;28;20115;-81
2022/07/28 00:36:50;;;;;;;31.17;20.95;;;22.90;91.20;;;;;;5072516;28;20063;-83
2022/07/28 00:39:16;;;;;;;30.38;20.45;;;22.90;91.10;;;;;;5053766;28;20020;-83
2022/07/28 00:41:42;;;;;;;26.17;21.40;;;22.90;90.90;;;;;;5071477;28;20363;-82
2022/07/28 00:44:08;;;;;;;24.60;21.98;;;22.90;90.90;;;;;;5071927;28;20428;-82
2022/07/28 00:46:35;;;;;;;26.67;22.33;;;22.90;90.90;;;;;;5053664;28;20454;-81
2022/07/28 00:49:01;;;;;;;26.85;22.40;;;22.90;90.90;;;;;;5071630;28;20470;-82
2022/07/28 00:51:28;;;;;;;29.13;21.20;;;22.80;90.70;;;;;;5071815;28;20033;-82
2022/07/28 00:53:55;;;;;;;25.20;20.70;;;22.80;90.60;;;;;;5071493;28;20036;-82
2022/07/28 00:56:21;;;;;;;28.83;20.88;;;22.90;90.50;;;;;;5071585;28;20024;-83
2022/07/28 00:58:48;;;;;;;22.90;20.53;;;22.80;90.30;;;;;;5075681;28;20024;-83
2022/07/28 01:01:16;;;;;;;23.33;20.13;;;22.80;90.20;;;;;;5072351;28;20025;-82
2022/07/28 01:03:48;;;;;;;24.20;19.90;;;22.80;90.10;;;;;;5072649;28;20035;-82
2022/07/28 01:06:43;;;;;;;25.17;18.73;;;22.80;89.80;;;;;;5072055;28;20070;-82
2022/07/28 01:09:40;;;;;;;22.23;19.95;;;22.80;89.40;;;;;;5064385;28;20023;-81
2022/07/28 01:12:09;;;;;;;21.73;19.23;;;22.70;89.40;;;;;;5071227;28;20093;-81
2022/07/28 01:14:55;;;;;;;24.50;19.75;;;22.70;89.40;;;;;;5071285;28;20037;-82
2022/07/28 01:17:30;;;;;;;22.60;19.75;;;22.70;89.30;;;;;;5061587;28;20465;-81
2022/07/28 01:20:36;;;;;;;25.02;20.05;;;22.70;89.20;;;;;;5075070;28;20505;-80
2022/07/28 01:23:33;;;;;;;26.25;19.25;;;22.70;89.20;;;;;;5024197;28;20471;-81
2022/07/28 01:26:07;;;;;;;20.38;18.30;;;22.70;89.10;;;;;;5050238;28;20032;-81
2022/07/28 01:28:58;;;;;;;20.55;18.05;;;22.60;89.30;;;;;;5076076;28;20017;-81
2022/07/28 01:31:26;;;;;;;24.23;19.75;;;22.60;89.50;;;;;;5075578;28;20031;-81
2022/07/28 01:33:58;;;;;;;26.25;20.15;;;22.60;89.60;;;;;;5072209;28;20044;-81
2022/07/28 01:36:40;;;;;;;26.40;20.10;;;22.60;89.70;;;;;;5074913;28;20072;-81
2022/07/28 01:39:06;;;;;;;24.20;19.25;;;22.60;89.70;;;;;;5072876;28;20478;-82
2022/07/28 01:41:35;;;;;;;29.02;19.13;;;22.60;90.00;;;;;;5074751;28;20039;-82
2022/07/28 01:44:05;;;;;;;24.88;19.42;;;22.60;90.00;;;;;;5074807;28;20397;-82
2022/07/28 01:46:32;;;;;;;25.70;18.60;;;22.60;90.00;;;;;;5074770;28;20031;-81
2022/07/28 01:48:59;;;;;;;24.58;20.27;;;22.60;90.10;;;;;;5074745;28;20024;-82
2022/07/28 01:51:29;;;;;;;24.65;21.60;;;22.60;90.20;;;;;;5074964;28;20439;-83
2022/07/28 01:53:58;;;;;;;28.55;20.02;;;22.60;90.20;;;;;;5067869;28;20105;-82
2022/07/28 01:56:27;;;;;;;26.75;20.15;;;22.60;90.30;;;;;;5073974;28;20021;-82
2022/07/28 01:58:56;;;;;;;24.98;21.20;;;22.60;90.20;;;;;;5065073;28;20012;-81
2022/07/28 02:01:24;;;;;;;24.52;20.75;;;22.70;90.20;;;;;;5075201;28;20020;-82
2022/07/28 02:03:52;;;;;;;26.10;20.75;;;22.70;90.30;;;;;;5074279;28;20116;-83
2022/07/28 02:06:20;;;;;;;23.27;20.30;;;22.70;90.30;;;;;;5074212;28;20087;-82
2022/07/28 02:08:47;;;;;;;24.60;22.00;;;22.70;90.40;;;;;;5074351;28;20107;-82
2022/07/28 02:13:57;;;;;;;23.42;20.95;;;22.80;90.40;;;;;;5074084;28;20047;-82
2022/07/28 02:16:26;;;;;;;26.27;21.67;;;22.80;90.70;;;;;;5074363;28;20017;-82
2022/07/28 02:18:54;;;;;;;24.27;21.67;;;22.80;90.40;;;;;;5074527;28;20393;-82
2022/07/28 02:21:31;;;;;;;29.63;23.17;;;22.90;90.40;;;;;;5074239;28;20032;-82
2022/07/28 02:23:58;;;;;;;28.98;23.00;;;22.90;90.30;;;;;;5075289;28;20453;-81
2022/07/28 02:26:31;;;;;;;;;;;23.00;90.30;;;;;;5075763;28;20016;-81
2022/07/28 02:29:01;;;;;;;27.40;23.85;;;23.00;90.00;;;;;;5076567;28;19932;-81
2022/07/28 02:31:30;;;;;;;26.30;23.25;;;23.10;90.30;;;;;;5079634;28;20028;-83
2022/07/28 02:34:02;;;;;;;24.77;21.70;;;23.20;90.10;;;;;;5075409;28;20029;-83
2022/07/28 02:36:31;;;;;;;26.98;22.65;;;23.30;90.00;;;;;;5073690;28;20413;-82
2022/07/28 02:39:04;;;;;;;30.55;23.40;;;23.50;89.50;;;;;;5061597;28;20017;-81
2022/07/28 02:41:38;;;;;;;25.88;22.98;;;23.60;89.10;;;;;;5055808;28;20477;-82
2022/07/28 02:44:14;;;;;;;26.05;23.25;;;23.70;88.80;;;;;;5063030;28;20120;-82
2022/07/28 02:46:52;;;;;;;27.77;23.30;;;23.80;88.40;;;;;;5075676;28;20385;-81
2022/07/28 02:49:30;;;;;;;29.10;23.98;;;23.90;87.90;;;;;;5065084;28;20017;-83
2022/07/28 02:51:58;;;;;;;30.00;23.25;;;24.00;87.60;;;;;;5055714;28;20470;-81
2022/07/28 02:54:26;;;;;;;26.48;23.70;;;24.10;87.20;;;;;;5073717;28;20115;-82
2022/07/28 02:56:53;;;;;;;26.83;22.02;;;24.30;87.00;;;;;;5073425;28;20017;-83
2022/07/28 02:59:20;;;;;;;29.85;23.45;;;24.40;86.50;;;;;;5073461;28;20024;-82
2022/07/28 03:01:47;;;;;;;33.33;23.80;;;24.60;85.90;;;;;;5073029;28;20021;-83
2022/07/28 03:04:13;;;;;;;;;;;24.70;85.40;;;;;;5074179;28;20017;-81
2022/07/28 03:06:40;;;;;;;34.57;24.83;;;24.80;85.30;;;;;;5077549;28;19904;-82
2022/07/28 03:09:09;;;;;;;34.60;26.15;;;24.80;85.00;;;;;;5075805;28;20289;-82
2022/07/28 03:11:35;;;;;;;32.72;24.98;;;24.90;84.50;;;;;;5073304;28;20035;-83
2022/07/28 03:14:01;;;;;;;35.95;28.10;;;24.90;84.50;;;;;;5072806;28;20032;-84
2022/07/28 03:16:27;;;;;;;30.42;25.35;;;24.90;84.30;;;;;;5076636;28;20063;-82
2022/07/28 03:18:52;;;;;;;35.70;27.85;;;24.90;84.30;;;;;;5072627;28;20052;-83
2022/07/28 03:21:18;;;;;;;30.27;27.08;;;24.70;84.70;;;;;;5054457;28;20454;-82
2022/07/28 03:23:47;;;;;;;31.98;26.48;;;24.50;85.50;;;;;;5072642;28;20398;-83
2022/07/28 03:26:40;;;;;;;33.75;28.35;;;24.50;86.20;;;;;;5072831;28;20373;-83
2022/07/28 03:29:07;;;;;;;30.90;27.17;;;24.50;86.20;;;;;;5056428;28;20090;-83
2022/07/28 03:31:34;;;;;;;35.35;27.55;;;24.50;86.30;;;;;;5072794;28;20020;-82
2022/07/28 03:34:00;;;;;;;32.33;27.25;;;24.50;86.40;;;;;;5072749;28;20040;-84
2022/07/28 03:36:34;;;;;;;36.47;28.90;;;24.40;87.00;;;;;;5072871;28;20437;-83
2022/07/28 03:39:03;;;;;;;34.42;29.23;;;24.30;87.40;;;;;;5073254;28;20427;-81
2022/07/28 03:41:31;;;;;;;29.58;25.90;;;24.30;87.70;;;;;;5071944;28;20016;-82
2022/07/28 03:43:59;;;;;;;33.45;27.35;;;24.30;88.20;;;;;;5074154;28;20434;-82
2022/07/28 03:46:26;;;;;;;32.92;26.00;;;24.30;87.70;;;;;;5073265;28;20474;-82
2022/07/28 03:48:52;;;;;;;31.15;25.85;;;24.40;88.00;;;;;;5057716;28;20445;-81
2022/07/28 03:51:18;;;;;;;33.67;26.15;;;24.40;87.50;;;;;;5059329;28;20081;-84
2022/07/28 03:53:45;;;;;;;31.88;26.67;;;24.40;88.00;;;;;;5075266;28;20058;-82
2022/07/28 03:56:11;;;;;;;32.85;26.38;;;24.40;87.90;;;;;;5073811;28;20025;-82
2022/07/28 03:58:37;;;;;;;39.50;25.50;;;24.30;88.00;;;;;;5072634;28;20071;-83
2022/07/28 04:01:03;;;;;;;28.58;24.92;;;24.40;88.10;;;;;;5072834;28;20454;-85
2022/07/28 04:03:29;;;;;;;29.83;25.92;;;24.40;87.80;;;;;;5072848;28;20095;-84
2022/07/28 04:05:56;;;;;;;32.70;26.08;;;24.40;87.80;;;;;;5072493;28;20058;-84
2022/07/28 04:08:22;;;;;;;30.30;24.80;;;24.50;87.80;;;;;;5071416;28;20756;-84
2022/07/28 04:10:48;;;;;;;30.50;24.52;;;24.70;87.50;;;;;;5071224;28;20289;-84
2022/07/28 04:13:14;;;;;;;28.95;25.10;;;25.00;86.50;;;;;;5072152;28;20099;-83
2022/07/28 04:15:40;;;;;;;27.23;24.40;;;25.00;85.90;;;;;;5071774;28;20458;-83
2022/07/28 04:18:06;;;;;;;26.52;22.90;;;25.10;85.80;;;;;;5071898;28;20019;-82
2022/07/28 04:20:32;;;;;;;27.92;22.52;;;25.20;85.10;;;;;;5073297;28;20059;-84
2022/07/28 04:22:58;;;;;;;25.60;22.77;;;25.20;84.90;;;;;;5050837;28;20462;-83
2022/07/28 04:25:26;;;;;;;26.63;21.58;;;25.20;84.20;;;;;;5051833;28;20045;-83
2022/07/28 04:27:52;;;;;;;32.38;21.85;;;25.20;84.20;;;;;;5051668;28;20024;-83
2022/07/28 04:30:23;;;;;;;23.85;21.30;;;25.30;83.90;;;;;;5052371;28;20100;-83
2022/07/28 04:32:50;;;;;;;24.25;21.55;;;25.40;84.00;;;;;;5051907;28;20074;-84
2022/07/28 04:35:18;;;;;;;28.33;24.10;;;25.60;84.10;;;;;;5051864;28;20040;-82
2022/07/28 04:37:45;;;;;;;34.03;24.35;;;25.70;83.30;;;;;;5052928;28;20029;-83
2022/07/28 04:40:12;;;;;;;29.25;22.40;;;25.70;82.80;;;;;;5056555;28;20421;-82
2022/07/28 04:42:38;;;;;;;26.23;21.58;;;25.80;82.40;;;;;;5054679;28;20025;-84
2022/07/28 04:45:06;;;;;;;29.15;25.50;;;25.90;82.60;;;;;;5052274;28;20021;-83
2022/07/28 04:47:33;;;;;;;28.88;24.92;;;25.80;82.20;;;;;;5053654;28;20389;-84
2022/07/28 04:49:58;;;;;;;25.50;22.93;;;25.60;83.00;;;;;;5051681;28;20032;-82
2022/07/28 04:52:25;;;;;;;31.70;22.60;;;25.60;83.10;;;;;;5052773;28;20474;-83
2022/07/28 04:54:52;;;;;;;33.15;23.17;;;25.70;83.40;;;;;;5058059;28;20494;-83
2022/07/28 04:57:18;;;;;;;23.13;20.00;;;25.80;82.50;;;;;;5051177;28;20104;-83
2022/07/28 04:59:44;;;;;;;22.23;19.88;;;26.00;81.20;;;;;;5055670;28;20029;-83
2022/07/28 05:02:11;;;;;;;21.67;17.60;;;26.00;80.70;;;;;;5054500;28;20545;-82
2022/07/28 05:04:37;;;;;;;21.05;17.75;;;26.10;79.60;;;;;;5056086;28;20301;-83
2022/07/28 05:07:04;;;;;;;21.40;16.23;;;;;;;;;;5056174;28;20029;-81
2022/07/28 05:09:30;;;;;;;17.50;15.50;;;27.20;74.30;;;;;;5056153;28;20024;-82
2022/07/28 05:11:57;;;;;;;21.05;15.63;;;;;;;;;;5055237;28;20033;-82
2022/07/28 05:14:22;;;;;;;17.83;15.13;;;28.20;72.00;;;;;;5055105;28;20097;-82
2022/07/28 05:16:48;;;;;;;17.23;15.43;;;28.80;69.70;;;;;;5055267;28;20416;-82
2022/07/28 05:19:14;;;;;;;18.30;15.73;;;29.30;69.30;;;;;;5054822;28;20029;-83
2022/07/28 05:21:40;;;;;;;16.90;14.07;;;30.20;66.70;;;;;;5056952;28;20536;-84
2022/07/28 05:24:06;;;;;;;20.77;14.55;;;30.90;63.40;;;;;;5075082;28;20040;-82
2022/07/28 05:26:32;;;;;;;20.95;14.45;;;31.60;62.30;;;;;;5074921;28;20029;-82
2022/07/28 05:28:58;;;;;;;17.10;15.25;;;31.80;60.00;;;;;;5075384;28;20121;-84
2022/07/28 05:31:24;;;;;;;16.07;14.47;;;31.70;61.00;;;;;;5074495;28;20736;-84
2022/07/28 05:33:50;;;;;;;17.47;12.70;;;32.10;59.60;;;;;;5074672;28;20098;-85
2022/07/28 05:36:15;;;;;;;17.70;13.63;;;32.40;59.10;;;;;;5057129;28;20017;-83
2022/07/28 05:38:41;;;;;;;14.23;12.83;;;33.10;58.00;;;;;;5075006;28;20127;-84
2022/07/28 05:41:07;;;;;;;18.27;12.67;;;33.70;56.00;;;;;;5075055;28;20020;-84
2022/07/28 05:43:36;;;;;;;16.50;14.20;;;34.20;54.40;;;;;;5057782;28;20107;-84
2022/07/28 05:46:03;;;;;;;18.95;13.65;;;34.30;53.70;;;;;;5076578;28;20024;-83
2022/07/28 05:48:28;;;;;;;;;;;34.60;53.50;;;;;;5067419;28;20025;-82
2022/07/28 05:50:54;;;;;;;13.65;12.20;;;35.30;54.00;;;;;;5074423;28;20004;-84
2022/07/28 05:53:20;;;;;;;14.90;11.83;;;35.60;51.10;;;;;;5074293;28;20064;-83
2022/07/28 05:55:46;;;;;;;18.98;13.63;;;36.10;50.50;;;;;;5056534;28;20029;-84
2022/07/28 05:58:12;;;;;;;16.88;11.93;;;36.90;49.30;;;;;;5074675;28;20070;-83
2022/07/28 06:00:38;;;;;;;15.33;11.93;;;37.90;47.90;;;;;;5089621;28;20051;-83
2022/07/28 06:03:04;;;;;;;13.60;12.23;;;38.60;45.90;;;;;;5073110;28;20297;-83
2022/07/28 06:05:30;;;;;;;;;;;38.80;45.40;;;;;;5074809;28;20024;-83
2022/07/28 06:07:57;;;;;;;12.30;10.27;;;39.00;46.60;;;;;;5074814;28;19904;-86
2022/07/28 06:10:25;;;;;;;12.73;10.43;;;38.80;44.60;;;;;;5075226;28;20130;-83
2022/07/28 06:12:56;;;;;;;12.68;10.27;;;38.10;45.20;;;;;;5073772;28;20017;-87
2022/07/28 06:15:26;;;;;;;11.93;10.23;;;37.40;46.10;;;;;;5073157;28;20108;-83
2022/07/28 06:17:56;;;;;;;16.00;10.45;;;36.50;46.70;;;;;;5073403;28;20454;-83
2022/07/28 06:20:23;;;;;;;11.30;10.15;;;35.00;48.90;;;;;;5073668;28;20113;-82
2022/07/28 06:22:52;;;;;;;12.07;10.73;;;34.50;49.90;;;;;;5074278;28;20047;-84
2022/07/28 06:25:23;;;;;;;16.08;11.00;;;34.10;50.10;;;;;;5056605;28;20017;-83
2022/07/28 06:27:52;;;;;;;12.18;10.88;;;33.40;51.30;;;;;;5075597;28;20027;-82
2022/07/28 06:30:18;;;;;;;12.57;11.13;;;32.90;52.50;;;;;;5073464;28;20040;-86
2022/07/28 06:32:45;;;;;;;15.38;11.88;;;32.00;54.90;;;;;;5055438;28;20470;-85
2022/07/28 06:35:13;;;;;;;;;;;31.20;55.80;;;;;;5057157;28;20044;-82
2022/07/28 06:37:39;;;;;;;15.60;10.80;;;30.60;56.20;;;;;;5075112;28;19916;-86
2022/07/28 06:40:06;;;;;;;13.73;10.45;;;30.30;58.10;;;;;;5056645;28;20020;-84
2022/07/28 06:42:33;;;;;;;13.80;11.77;;;30.30;58.00;;;;;;5074300;28;20036;-85
2022/07/28 06:44:58;;;;;;;12.30;11.05;;;30.30;58.30;;;;;;5073616;28;20054;-81
2022/07/28 06:47:24;;;;;;;13.70;11.23;;;31.30;57.20;;;;;;5068162;28;20119;-82
2022/07/28 06:49:50;;;;;;;11.70;10.43;;;32.70;54.40;;;;;;5073325;28;20146;-82
2022/07/28 06:52:20;;;;;;;11.13;9.87;;;33.50;51.70;;;;;;5072948;28;20502;-79
2022/07/28 06:54:49;;;;;;;13.18;9.73;;;33.60;51.50;;;;;;5072736;28;20037;-83
2022/07/28 06:57:15;;;;;;;10.13;9.23;;;34.40;49.70;;;;;;5072994;28;20016;-82
2022/07/28 06:59:41;;;;;;;10.75;9.65;;;35.70;48.90;;;;;;5072734;28;20469;-83
2022/07/28 07:02:07;;;;;;;11.33;10.13;;;36.50;46.80;;;;;;5072632;28;20035;-83
2022/07/28 07:04:33;;;;;;;12.07;10.13;;;37.60;45.80;;;;;;5073084;28;20261;-82
2022/07/28 07:06:59;;;;;;;;;;;39.30;44.10;;;;;;5073934;28;20047;-82
2022/07/28 07:09:24;;;;;;;11.90;9.77;;;40.60;43.80;;;;;;5072979;28;20348;-82
2022/07/28 07:11:50;;;;;;;12.65;10.15;;;41.50;40.60;;;;;;5068562;28;20031;-81
2022/07/28 07:14:16;;;;;;;11.30;10.20;;;41.70;39.70;;;;;;5073133;28;20047;-81
2022/07/28 07:16:42;;;;;;;10.15;9.15;;;;;;;;;;5055067;28;20116;-82
2022/07/28 07:19:08;;;;;;;11.38;10.27;;;41.90;39.30;;;;;;5072275;28;20074;-81
2022/07/28 07:21:34;;;;;;;;;;;42.70;38.50;;;;;;5072495;28;20029;-82
2022/07/28 07:24:00;;;;;;;14.18;11.95;;;43.30;39.40;;;;;;5072495;28;19935;-82
2022/07/28 07:26:25;;;;;;;;;;;43.80;38.10;;;;;;5073106;28;20095;-82
2022/07/28 07:28:51;;;;;;;13.70;10.90;;;44.30;38.80;;;;;;5071707;28;19953;-82
2022/07/28 07:31:17;;;;;;;16.55;10.95;;;44.50;37.00;;;;;;5072358;28;20085;-81
2022/07/28 07:33:43;;;;;;;12.20;10.02;;;44.90;37.20;;;;;;5072190;28;20024;-81
2022/07/28 07:36:09;;;;;;;12.45;10.38;;;45.20;36.60;;;;;;5072166;28;20028;-83
2022/07/28 07:38:34;;;;;;;13.55;10.40;;;45.50;36.40;;;;;;5072101;28;20016;-82
2022/07/28 07:41:00;;;;;;;12.43;10.73;;;45.80;36.10;;;;;;5072212;28;20025;-80
2022/07/28 07:43:27;;;;;;;13.23;10.80;;;45.40;35.40;;;;;;5072020;28;20047;-82
2022/07/28 07:45:52;;;;;;;15.38;10.82;;;43.30;37.10;;;;;;5070270;28;20028;-81
2022/07/28 07:48:18;;;;;;;;;;;42.20;38.90;;;;;;5072292;28;20031;-81
2022/07/28 07:50:44;;;;;;;19.38;11.10;;;42.10;40.30;;;;;;5072326;28;19904;-80
2022/07/28 07:53:09;;;;;;;;;;;42.00;39.70;;;;;;5086862;28;20028;-82
2022/07/28 07:55:35;;;;;;;14.23;10.63;;;42.70;40.00;;;;;;5072169;28;19912;-81
2022/07/28 07:58:02;;;;;;;12.30;9.95;;;43.20;38.00;;;;;;5053902;28;20020;-83
2022/07/28 08:00:28;;;;;;;17.88;10.50;;;43.20;38.40;;;;;;5072052;28;20071;-81
2022/07/28 08:02:54;;;;;;;14.23;10.35;;;42.80;37.70;;;;;;5071752;28;20013;-82
2022/07/28 08:05:20;;;;;;;12.85;9.70;;;41.70;38.90;;;;;;5053748;28;20405;-81
2022/07/28 08:07:46;;;;;;;9.77;7.60;;;40.90;39.40;;;;;;5071643;28;20086;-82
2022/07/28 08:10:12;;;;;;;12.07;9.23;;;40.70;39.40;;;;;;5069713;28;20029;-82
2022/07/28 08:12:38;;;;;;;10.48;9.32;;;39.60;40.20;;;;;;5071210;28;20378;-82
2022/07/28 08:15:05;;;;;;;16.70;11.02;;;38.40;41.90;;;;;;5071083;28;20028;-81
2022/07/28 08:17:30;;;;;;;11.18;9.35;;;37.10;44.70;;;;;;5071376;28;20024;-81
2022/07/28 08:19:57;;;;;;;12.00;9.83;;;36.20;44.80;;;;;;5071696;28;20031;-82
2022/07/28 08:22:23;;;;;;;16.50;9.82;;;35.40;46.30;;;;;;5071495;28;20076;-80
2022/07/28 08:24:49;;;;;;;9.23;8.27;;;34.20;47.90;;;;;;5070509;28;20481;-82
2022/07/28 08:27:16;;;;;;;12.77;8.98;;;33.20;48.70;;;;;;5071059;28;20107;-81
2022/07/28 08:29:42;;;;;;;;;;;34.60;48.50;;;;;;5071891;28;20107;-81
2022/07/28 08:32:08;;;;;;;10.25;8.35;;;35.90;46.50;;;;;;5071756;28;20003;-81
2022/07/28 08:34:34;;;;;;;9.47;8.53;;;35.40;45.50;;;;;;5071774;28;20040;-82
2022/07/28 08:37:02;;;;;;;10.82;8.80;;;34.10;47.20;;;;;;5071940;28;20078;-81
2022/07/28 08:39:30;;;;;;;12.40;8.88;;;33.20;48.70;;;;;;5071543;28;20024;-81
2022/07/28 08:42:02;;;;;;;9.45;8.43;;;;;;;;;;5070130;28;20099;-82
2022/07/28 08:44:33;;;;;;;10.68;8.38;;;;;;;;;;5053220;28;20478;-81
2022/07/28 08:46:59;;;;;;;11.77;8.55;;;32.40;50.20;;;;;;5070906;28;20474;-82
2022/07/28 08:49:26;;;;;;;9.10;8.02;;;;;;;;;;5071193;28;20062;-81
2022/07/28 08:51:53;;;;;;;11.90;10.15;;;30.30;53.80;;;;;;5071241;28;20025;-81
2022/07/28 08:54:23;;;;;;;11.55;8.13;;;29.90;55.60;;;;;;5071086;28;20254;-82
2022/07/28 08:56:49;;;;;;;20.35;11.68;;;29.70;55.90;;;;;;5071036;28;20028;-81
2022/07/28 08:59:15;;;;;;;27.17;12.23;;;29.50;56.90;;;;;;5070330;28;20022;-79
2022/07/28 09:01:42;;;;;;;17.08;7.93;;;29.30;57.50;;;;;;5071211;28;20025;-83
2022/07/28 09:04:08;;;;;;;16.15;9.68;;;29.10;57.50;;;;;;5052992;28;20024;-81
2022/07/28 09:06:40;;;;;;;12.45;9.13;;;28.80;58.10;;;;;;5054407;28;20021;-83
2022/07/28 09:09:08;;;;;;;10.32;9.23;;;28.70;58.80;;;;;;5050914;28;20032;-82
2022/07/28 09:11:38;;;;;;;11.35;9.00;;;28.60;60.00;;;;;;5070905;28;20091;-82
2022/07/28 09:14:05;;;;;;;14.98;9.82;;;28.80;60.80;;;;;;5069847;28;20035;-81
2022/07/28 09:16:31;;;;;;;27.23;9.23;;;30.60;59.50;;;;;;5057405;28;20362;-83
2022/07/28 09:18:57;;;;;;;11.93;7.88;;;34.50;53.60;;;;;;5072313;28;20059;-82
2022/07/28 09:21:23;;;;;;;7.70;6.65;;;36.90;49.00;;;;;;5053307;28;20461;-81
2022/07/28 09:23:49;;;;;;;8.70;6.20;;;39.00;43.50;;;;;;5072440;28;20098;-83
2022/07/28 09:26:16;;;;;;;10.95;6.45;;;40.20;40.80;;;;;;5071672;28;20020;-83
2022/07/28 09:28:56;;;;;;;12.25;7.15;;;41.00;39.30;;;;;;5071971;28;20029;-81
2022/07/28 09:31:23;;;;;;;12.90;7.50;;;40.10;40.00;;;;;;5073198;28;20032;-80
2022/07/28 09:33:59;;;;;;;8.88;7.55;;;38.20;41.30;;;;;;5071728;28;20021;-83
2022/07/28 09:36:27;;;;;;;13.88;7.53;;;37.70;44.00;;;;;;5070960;28;20096;-82
2022/07/28 09:38:53;;;;;;;8.75;6.78;;;38.40;42.80;;;;;;5073667;28;20033;-81
2022/07/28 09:41:22;;;;;;;9.40;6.55;;;39.00;42.10;;;;;;5074178;28;20063;-82
2022/07/28 09:43:50;;;;;;;7.72;6.90;;;39.30;40.20;;;;;;5074487;28;20024;-81
2022/07/28 09:46:22;;;;;;;7.40;6.07;;;38.30;40.90;;;;;;5075675;28;20020;-81
2022/07/28 09:48:47;;;;;;;8.63;6.22;;;38.40;41.30;;;;;;5075852;28;20028;-81
2022/07/28 09:51:14;;;;;;;;;;;39.00;40.80;;;;;;5076106;28;20046;-82
2022/07/28 09:53:40;;;;;;;9.32;8.10;;;40.20;41.30;;;;;;5073460;28;20269;-82
2022/07/28 09:56:07;;;;;;;10.30;8.52;;;41.80;40.50;;;;;;5074337;28;20012;-82
2022/07/28 09:58:33;;;;;;;11.27;8.35;;;42.50;39.10;;;;;;5074103;28;20485;-84
2022/07/28 10:01:11;;;;;;;9.52;8.15;;;42.80;38.90;;;;;;5056261;28;20119;-83
2022/07/28 10:03:38;;;;;;;7.35;6.60;;;43.50;37.80;;;;;;5074034;28;20020;-82
2022/07/28 10:06:09;;;;;;;9.20;7.38;;;42.40;37.40;;;;;;5073583;28;20078;-83
2022/07/28 10:08:47;;;;;;;9.32;7.18;;;41.30;38.60;;;;;;5064340;28;20097;-83
2022/07/28 10:11:15;;;;;;;10.77;8.20;;;41.20;38.90;;;;;;5073669;28;20028;-83
2022/07/28 10:13:57;;;;;;;10.05;7.68;;;40.60;39.30;;;;;;5055700;28;20021;-83
2022/07/28 10:16:24;;;;;;;9.90;8.63;;;39.50;40.60;;;;;;5073650;28;20017;-83
2022/07/28 10:18:51;;;;;;;10.30;8.10;;;;;;;;;;5073811;28;20054;-84
2022/07/28 10:21:19;;;;;;;9.98;8.93;;;38.80;42.50;;;;;;5073852;28;20016;-82
2022/07/28 10:23:55;;;;;;;11.70;8.35;;;36.60;44.70;;;;;;5073214;28;20422;-82
2022/07/28 10:26:28;;;;;;;11.05;8.75;;;35.40;46.80;;;;;;5073646;28;20090;-84
2022/07/28 10:28:58;;;;;;;12.43;9.35;;;34.70;49.20;;;;;;5074248;28;20021;-83
2022/07/28 10:31:52;;;;;;;9.50;8.30;;;35.70;46.90;;;;;;5073704;28;20024;-82
2022/07/28 10:34:43;;;;;;;12.65;9.88;;;35.80;45.00;;;;;;5073533;28;20032;-83
2022/07/28 10:37:17;;;;;;;12.50;9.52;;;34.80;47.40;;;;;;5043816;28;20020;-83
2022/07/28 10:40:09;;;;;;;9.02;8.00;;;33.70;48.60;;;;;;5074241;28;20480;-81
2022/07/28 10:42:36;;;;;;;7.72;6.53;;;32.90;47.80;;;;;;5062281;28;20387;-83
2022/07/28 10:45:03;;;;;;;10.52;7.45;;;32.20;46.80;;;;;;5073656;28;20096;-82
2022/07/28 10:47:29;;;;;;;8.13;6.13;;;31.60;47.40;;;;;;5055353;28;20381;-83
2022/07/28 10:49:56;;;;;;;8.68;7.72;;;31.30;48.20;;;;;;5072642;28;20039;-82
2022/07/28 10:52:23;;;;;;;8.90;7.78;;;31.10;49.40;;;;;;5073314;28;20024;-83
2022/07/28 10:55:07;;;;;;;8.93;7.70;;;30.90;50.70;;;;;;5073082;28;20036;-83
2022/07/28 10:57:37;;;;;;;9.35;8.32;;;30.90;52.10;;;;;;5068533;28;20504;-81
2022/07/28 11:00:18;;;;;;;11.10;7.72;;;31.00;52.50;;;;;;5073203;28;20043;-84
2022/07/28 11:02:50;;;;;;;10.40;8.50;;;31.20;52.50;;;;;;5074815;28;20017;-81
2022/07/28 11:05:35;;;;;;;10.75;8.13;;;31.40;52.40;;;;;;5055350;28;20012;-83
2022/07/28 11:08:25;;;;;;;8.65;6.93;;;31.50;52.00;;;;;;5071868;28;20038;-81
2022/07/28 11:10:53;;;;;;;10.80;6.40;;;31.50;49.80;;;;;;5072644;28;20482;-82
2022/07/28 11:13:24;;;;;;;7.72;6.30;;;31.20;49.20;;;;;;5073000;28;20031;-83
2022/07/28 11:15:51;;;;;;;7.72;6.93;;;31.00;49.60;;;;;;5071845;28;20115;-83
2022/07/28 11:18:18;;;;;;;6.90;6.25;;;30.80;50.40;;;;;;5072972;28;20039;-82
2022/07/28 11:20:55;;;;;;;7.88;6.35;;;30.50;51.60;;;;;;5073515;28;20024;-81
2022/07/28 11:23:42;;;;;;;10.55;8.02;;;29.90;52.70;;;;;;5072925;28;20044;-82
2022/07/28 11:26:22;;;;;;;9.48;8.45;;;29.60;54.00;;;;;;5072173;28;20028;-84
2022/07/28 11:29:02;;;;;;;13.20;7.78;;;29.50;54.70;;;;;;5072153;28;20055;-82
2022/07/28 11:31:43;;;;;;;11.13;6.60;;;29.50;55.80;;;;;;5071414;28;20488;-81
2022/07/28 11:34:10;;;;;;;11.05;7.53;;;;;;;;;;5072269;28;20035;-82
2022/07/28 11:36:54;;;;;;;9.95;7.07;;;;;;;;;;5072236;28;20016;-81
2022/07/28 11:39:24;;;;;;;12.73;7.90;;;;;;;;;;5072370;28;20028;-81
2022/07/28 11:41:50;;;;;;;11.82;8.50;;;;;;;;;;5072137;28;20199;-81
2022/07/28 11:44:30;;;;;;;13.07;7.85;;;;;;;;;;5072321;28;20098;-82
2022/07/28 11:47:19;;;;;;;9.32;6.80;;;;;;;;;;5071304;28;20027;-81
2022/07/28 11:49:46;;;;;;;10.10;7.13;;;;;;;;;;5061731;28;20036;-82
2022/07/28 11:52:16;;;;;;;9.10;5.93;;;;;;;;;;5071926;28;20381;-81
2022/07/28 11:54:47;;;;;;;13.60;7.95;;;29.00;59.10;;;;;;5054285;28;20051;-80
2022/07/28 11:57:13;;;;;;;9.23;7.22;;;27.70;61.50;;;;;;5073004;28;20023;-81
2022/07/28 11:59:44;;;;;;;12.20;7.30;;;27.50;61.20;;;;;;5072118;28;20448;-80
2022/07/28 12:02:18;;;;;;;14.70;12.13;;;27.30;61.10;;;;;;5070023;28;20070;-82
2022/07/28 12:04:44;;;;;;;25.13;16.63;;;27.00;61.90;;;;;;5066487;28;20035;-83
2022/07/28 12:07:11;;;;;;;19.58;12.35;;;27.00;62.00;;;;;;5071929;28;20438;-82
2022/07/28 12:09:37;;;;;;;12.88;7.50;;;27.00;62.70;;;;;;5071874;28;20141;-82
2022/07/28 12:12:06;;;;;;;13.35;7.80;;;27.10;62.20;;;;;;5072364;28;20453;-81
2022/07/28 12:14:37;;;;;;;11.57;8.27;;;27.10;62.50;;;;;;5071657;28;20844;-83
2022/07/28 12:17:04;;;;;;;14.18;7.95;;;27.10;63.20;;;;;;5054160;28;20024;-82
2022/07/28 12:19:31;;;;;;;12.83;7.70;;;27.30;62.50;;;;;;5071414;28;20029;-83
2022/07/28 12:21:57;;;;;;;14.88;7.75;;;27.60;62.30;;;;;;5071551;28;20032;-81
2022/07/28 12:24:28;;;;;;;9.27;7.43;;;27.70;62.30;;;;;;5071959;28;20077;-82
2022/07/28 12:26:54;;;;;;;13.93;8.65;;;27.70;62.60;;;;;;5071508;28;20417;-82
2022/07/28 12:29:20;;;;;;;13.07;8.25;;;27.80;62.80;;;;;;5054326;28;20099;-81
2022/07/28 12:32:01;;;;;;;11.05;7.32;;;28.00;62.60;;;;;;5054708;28;20028;-83
2022/07/28 12:34:29;;;;;;;10.02;8.20;;;28.20;61.20;;;;;;5073031;28;20041;-83
2022/07/28 12:36:56;;;;;;;11.25;8.43;;;28.10;61.20;;;;;;5080409;28;20024;-82
2022/07/28 12:39:24;;;;;;;11.90;7.68;;;28.10;60.80;;;;;;5053308;28;20409;-82
2022/07/28 12:42:00;;;;;;;11.38;7.32;;;28.10;60.90;;;;;;5071176;28;20517;-84
2022/07/28 12:44:33;;;;;;;8.82;7.35;;;27.90;60.50;;;;;;5053248;28;20374;-82
2022/07/28 12:47:00;;;;;;;13.00;7.13;;;27.70;60.70;;;;;;5072534;28;20044;-80
2022/07/28 12:49:26;;;;;;;18.08;7.68;;;27.70;61.80;;;;;;5056380;28;20025;-82
2022/07/28 12:51:51;;;;;;;11.15;8.10;;;27.60;62.10;;;;;;5070336;28;20029;-83